METAR AND TAF INFORMATION
METAR FOR BIKF
ADDS - METARS form results

(0042 UTC 05 June 2020)
Data provider http://aviationweather.gov/metar/data/
 
METAR text: BIKF 050030Z 01017KT 9999 FEW023 05/01 Q1021
Conditions at: BIKF (KEFLAVIK (CIV/MI, IS) observed 0030 UTC 05 June 2020
Temperature: 5.0°C (41°F)
Dewpoint: 1.0°C (34°F) [RH = 75%]
Pressure (altimeter): 30.15 inches Hg (1021.0 mb)
Winds: from the N (10 degrees) at 20 MPH (17 knots; 8.7 m/s)
Visibility: 6 or more miles (10+ km)
Ceiling: at least 12,000 feet AGL
Clouds: few clouds at 2300 feet AGL
Weather: no significant weather observed at this time

METAR text: BIKF 050000Z 01019KT 9999 FEW024 05/01 Q1021
Conditions at: BIKF (KEFLAVIK (CIV/MI, IS) observed 0000 UTC 05 June 2020
Temperature: 5.0°C (41°F)
Dewpoint: 1.0°C (34°F) [RH = 75%]
Pressure (altimeter): 30.15 inches Hg (1021.0 mb)
Winds: from the N (10 degrees) at 22 MPH (19 knots; 9.8 m/s)
Visibility: 6 or more miles (10+ km)
Ceiling: at least 12,000 feet AGL
Clouds: few clouds at 2400 feet AGL
Weather: no significant weather observed at this time

Forecast for: BIKF (KEFLAVIK (CIV/MI, IS)
Text: TAF BIKF 042236Z 0500/0600 02020KT 9999 FEW030 TX10/0515Z TN03/0506Z
Forecast period: 0000 UTC 05 June 2020 to 0000 UTC 06 June 2020
Forecast type: FROM: standard forecast or significant change
Winds: from the NNE (20 degrees) at 23 MPH (20 knots; 10.3 m/s)
Visibility: 6 or more miles 10+ km)
Ceiling: at least 12,000 feet AGL
Clouds: few clouds at 3000 feet AGL
Weather: no significant weather forecast for this period

 AIRPORT MAP

 RUNWAY INFORMATION
Runway 02 Runway length 10019 ft Runway width 197 ft
Runway elevation 137 ft Runway displaced threshold 19 ft Runway heading 360
Runway 20 Runway length 10019 ft Runway width 197 ft
Runway elevation 163 ft Runway displaced threshold 19 ft Runway heading 180
Runway 11 Runway length 10056 ft Runway width 197 ft
Runway elevation 111 ft Runway displaced threshold 43 ft Runway heading 90
Runway 29 Runway length 10056 ft Runway width 197 ft
Runway elevation 171 ft Runway displaced threshold 43 ft Runway heading 270

 AIRPORT FREQUENCIES
Type A/G Name AIR GND Frequency 131.9 MHZ
Type APP Name APP Frequency 119.3 MHZ
Type ATIS Name ATIS Frequency 128.3 MHZ
Type DEP Name DEP Frequency 119.3 MHZ
Type GND Name GND Frequency 121.9 MHZ
Type OPS Name BASE OPS Frequency 129 MHZ
Type PMSV Name PMSV METR Frequency 125 MHZ
Type TWR Name TWR Frequency 118.3 MHZ

 AIRPORT NEAR NAVIGATION AIDS
Type VORTAC Name Keflavik Frequency 112000 KHZ
Type NDB Name Keflavik Frequency 392 KHZ
Type NDB Name Oscar Kilo Frequency 364 KHZ